Santa Rita do Araguaia, Brazil
Current Conditions -  °F | °C
As of 6:00 AM on Sunday 21 Dec 2014 (Local Time) from SBCY Reporting Station
Few Clouds Few Clouds  
Wind Chill: 79°   Ceiling: Unl
Heat Index: 82°   Visibility: 6mi
Dew Point: 72°   Wind: 9mph
Humidity: 78%   Direction: 360°N
Pressure: 29.77"   Gusts: NA
Location:  17.33°S, 53.21°W
Report Text: SBCY 210800Z 36008KT 9999 FEW020 26/22 Q1008
Loading
Personal Weather Stations






























Interactive Weather Map New forecast layout! Learn more

10-Day Weather Forecast

Advertisements
Track Severe Weather on mobile